Time;durP1;ratioP1;P1;durP2;ratioP2;P2;SDS_P1;SDS_P2;PMS_P1;PMS_P2;Temp;Humidity;BMP_temperature;BMP_pressure;BME280_temperature;BME280_humidity;BME280_pressure;Samples;Min_cycle;Max_cycle;Signal;HPM_P1;HPM_P2
2022/09/02 00:00:42;;;;;;;4.00;3.17;;;15.30;99.90;;;;;;5036585;28;20088;-71
2022/09/02 00:03:11;;;;;;;4.18;3.05;;;15.40;99.90;;;;;;5036078;28;20467;-71
2022/09/02 00:05:38;;;;;;;6.95;3.13;;;15.30;99.90;;;;;;5034450;28;20472;-71
2022/09/02 00:08:06;;;;;;;3.22;2.60;;;15.40;99.90;;;;;;5035375;28;20033;-71
2022/09/02 00:10:37;;;;;;;4.50;2.92;;;15.30;99.90;;;;;;5035996;28;20072;-71
2022/09/02 00:13:05;;;;;;;4.43;3.03;;;15.40;99.90;;;;;;5035946;28;20100;-72
2022/09/02 00:15:33;;;;;;;5.97;3.28;;;15.30;99.90;;;;;;5035566;28;20567;-72
2022/09/02 00:18:00;;;;;;;3.53;2.70;;;15.30;99.90;;;;;;5031600;28;20064;-72
2022/09/02 00:20:30;;;;;;;3.70;3.10;;;15.30;99.90;;;;;;5034206;28;20041;-71
2022/09/02 00:22:57;;;;;;;5.25;2.70;;;15.30;99.90;;;;;;5034971;28;20049;-71
2022/09/02 00:25:25;;;;;;;6.85;3.20;;;15.30;99.90;;;;;;5032368;28;20514;-72
2022/09/02 00:27:52;;;;;;;5.90;3.08;;;15.30;99.90;;;;;;5036082;28;20107;-71
2022/09/02 00:30:20;;;;;;;4.80;3.05;;;15.30;99.90;;;;;;5035198;28;20448;-71
2022/09/02 00:32:47;;;;;;;4.97;2.88;;;15.30;99.90;;;;;;5017696;28;20045;-71
2022/09/02 00:35:14;;;;;;;4.25;3.70;;;15.30;99.90;;;;;;5035579;28;20037;-71
2022/09/02 00:37:43;;;;;;;4.07;3.38;;;15.30;99.90;;;;;;5036420;28;20476;-71
2022/09/02 00:40:11;;;;;;;4.90;2.90;;;15.30;99.90;;;;;;5035542;28;20064;-73
2022/09/02 00:42:39;;;;;;;4.20;3.33;;;15.30;99.90;;;;;;5035474;28;20053;-72
2022/09/02 00:45:08;;;;;;;7.55;3.55;;;15.20;99.90;;;;;;5034782;28;20049;-72
2022/09/02 00:47:36;;;;;;;4.10;2.90;;;15.20;99.90;;;;;;5017099;28;20045;-71
2022/09/02 00:50:07;;;;;;;6.63;3.65;;;15.20;99.90;;;;;;5016305;28;20057;-72
2022/09/02 00:52:39;;;;;;;4.70;3.00;;;15.10;99.90;;;;;;5035221;28;20046;-72
2022/09/02 00:55:14;;;;;;;4.32;3.33;;;15.20;99.90;;;;;;5035248;28;20489;-72
2022/09/02 00:57:46;;;;;;;6.15;3.50;;;15.10;99.90;;;;;;5017326;28;20045;-72
2022/09/02 01:00:16;;;;;;;4.15;3.38;;;15.20;99.90;;;;;;5016790;28;20131;-72
2022/09/02 01:02:47;;;;;;;6.45;3.30;;;15.20;99.90;;;;;;5017407;28;20041;-72
2022/09/02 01:05:17;;;;;;;4.50;3.20;;;15.20;99.90;;;;;;5034980;28;20088;-71
2022/09/02 01:07:45;;;;;;;7.28;3.28;;;15.20;99.90;;;;;;5035517;28;20053;-72
2022/09/02 01:10:17;;;;;;;6.75;3.70;;;15.20;99.90;;;;;;5016983;28;20048;-71
2022/09/02 01:12:44;;;;;;;6.50;3.58;;;15.30;99.90;;;;;;5034797;28;20408;-71
2022/09/02 01:15:13;;;;;;;4.70;3.03;;;15.20;99.90;;;;;;5017530;28;20067;-70
2022/09/02 01:17:43;;;;;;;4.28;3.05;;;15.30;99.90;;;;;;5035912;28;20046;-70
2022/09/02 01:20:13;;;;;;;3.60;3.08;;;15.20;99.90;;;;;;5013786;28;20088;-70
2022/09/02 01:22:44;;;;;;;9.50;3.83;;;15.10;99.90;;;;;;5015481;28;20124;-70
2022/09/02 01:25:15;;;;;;;3.65;3.08;;;15.10;99.90;;;;;;5017209;28;20424;-71
2022/09/02 01:27:43;;;;;;;6.47;3.53;;;15.10;99.90;;;;;;5017431;28;20045;-71
2022/09/02 01:30:15;;;;;;;5.95;4.05;;;15.10;99.90;;;;;;5010820;28;20462;-71
2022/09/02 01:32:42;;;;;;;12.50;3.50;;;15.10;99.90;;;;;;5016759;28;20492;-71
2022/09/02 01:35:11;;;;;;;5.20;4.70;;;15.20;99.90;;;;;;5016935;28;20128;-71
2022/09/02 01:37:39;;;;;;;9.60;8.00;;;15.10;99.90;;;;;;5034456;28;20053;-71
2022/09/02 01:40:11;;;;;;;7.57;4.50;;;15.10;99.90;;;;;;5033076;28;20045;-71
2022/09/02 01:42:40;;;;;;;6.55;5.47;;;15.10;99.90;;;;;;5016703;28;20057;-71
2022/09/02 01:45:08;;;;;;;5.07;3.80;;;15.10;99.90;;;;;;4996210;28;20073;-70
2022/09/02 01:47:36;;;;;;;5.85;4.43;;;15.10;99.90;;;;;;5007254;28;20037;-71
2022/09/02 01:50:05;;;;;;;6.35;4.00;;;15.10;99.90;;;;;;5012730;28;20408;-71
2022/09/02 01:52:33;;;;;;;5.25;3.80;;;15.20;99.90;;;;;;5008585;28;20080;-70
2022/09/02 01:55:01;;;;;;;4.65;3.47;;;15.20;99.90;;;;;;5016594;28;20037;-71
2022/09/02 01:57:30;;;;;;;4.43;3.67;;;15.10;99.90;;;;;;5016261;28;20058;-71
2022/09/02 01:59:57;;;;;;;6.20;4.07;;;15.10;99.90;;;;;;5008648;28;20049;-71
2022/09/02 02:02:26;;;;;;;6.18;4.00;;;15.10;99.90;;;;;;5011934;28;20132;-71
2022/09/02 02:04:53;;;;;;;4.90;4.28;;;15.10;99.90;;;;;;5033844;28;20515;-71
2022/09/02 02:07:22;;;;;;;6.22;4.25;;;15.10;99.90;;;;;;5016383;28;20077;-71
2022/09/02 02:09:50;;;;;;;5.68;3.90;;;15.10;99.90;;;;;;5014299;28;20049;-71
2022/09/02 02:12:18;;;;;;;6.97;4.07;;;15.10;99.90;;;;;;5015634;28;20512;-71
2022/09/02 02:14:47;;;;;;;5.85;3.85;;;15.10;99.90;;;;;;5015815;28;20059;-72
2022/09/02 02:17:15;;;;;;;8.50;3.40;;;15.10;99.90;;;;;;5025733;28;20477;-71
2022/09/02 02:19:42;;;;;;;5.47;3.50;;;15.00;99.90;;;;;;5015965;28;20492;-71
2022/09/02 02:22:10;;;;;;;6.28;3.53;;;15.00;99.90;;;;;;5033014;28;20107;-71
2022/09/02 02:24:38;;;;;;;5.50;4.03;;;15.00;99.90;;;;;;5015526;28;20041;-71
2022/09/02 02:27:05;;;;;;;5.75;3.85;;;15.00;99.90;;;;;;5025247;28;20123;-70
2022/09/02 02:29:33;;;;;;;6.75;3.80;;;15.00;99.90;;;;;;5030496;28;20477;-70
2022/09/02 02:32:03;;;;;;;6.50;4.10;;;15.00;99.90;;;;;;5008157;28;20041;-71
2022/09/02 02:34:30;;;;;;;5.03;4.20;;;15.00;99.90;;;;;;5015596;28;20523;-71
2022/09/02 02:36:57;;;;;;;6.05;4.07;;;15.00;99.90;;;;;;5033122;28;20448;-71
2022/09/02 02:39:25;;;;;;;5.40;3.97;;;15.00;99.90;;;;;;5037028;28;20064;-71
2022/09/02 02:41:52;;;;;;;6.72;4.47;;;15.00;99.90;;;;;;5027433;28;20111;-71
2022/09/02 02:44:20;;;;;;;5.93;4.70;;;15.00;99.90;;;;;;5007183;28;20052;-71
2022/09/02 02:46:47;;;;;;;9.63;4.65;;;15.00;99.90;;;;;;5009716;28;20136;-71
2022/09/02 02:49:16;;;;;;;6.70;4.72;;;15.00;99.90;;;;;;5029271;28;20049;-71
2022/09/02 02:51:43;;;;;;;6.50;4.70;;;15.10;99.90;;;;;;5015434;28;20541;-71
2022/09/02 02:54:13;;;;;;;8.00;5.30;;;15.00;99.90;;;;;;5033169;28;20041;-71
2022/09/02 02:56:41;;;;;;;8.48;5.00;;;15.10;99.90;;;;;;5015115;28;20140;-71
2022/09/02 02:59:08;;;;;;;6.43;5.07;;;15.00;99.90;;;;;;5032752;28;20057;-71
2022/09/02 03:01:36;;;;;;;9.20;5.65;;;15.10;99.90;;;;;;5014429;28;20152;-70
2022/09/02 03:04:05;;;;;;;11.60;5.70;;;15.10;99.90;;;;;;5032479;28;20037;-70
2022/09/02 03:06:35;;;;;;;9.30;5.78;;;15.10;99.90;;;;;;5015752;28;20056;-70
2022/09/02 03:09:04;;;;;;;9.65;5.85;;;15.10;99.90;;;;;;5032891;28;20053;-70
2022/09/02 03:11:32;;;;;;;9.00;7.05;;;15.10;99.90;;;;;;4996236;28;20050;-70
2022/09/02 03:13:59;;;;;;;8.88;6.28;;;15.10;99.90;;;;;;5009537;28;20052;-70
2022/09/02 03:16:26;;;;;;;8.52;6.18;;;15.00;99.90;;;;;;5019450;28;20060;-70
2022/09/02 03:18:55;;;;;;;7.65;6.18;;;15.00;99.90;;;;;;5037029;28;20045;-70
2022/09/02 03:21:22;;;;;;;8.63;6.82;;;15.00;99.90;;;;;;5019784;28;20053;-70
2022/09/02 03:23:52;;;;;;;10.15;5.95;;;15.00;99.90;;;;;;5019013;28;20566;-70
2022/09/02 03:26:22;;;;;;;8.68;7.03;;;15.00;99.90;;;;;;5018866;28;20073;-70
2022/09/02 03:28:50;;;;;;;9.57;6.30;;;14.90;99.90;;;;;;5036953;28;20041;-70
2022/09/02 03:31:20;;;;;;;11.30;6.60;;;15.00;99.90;;;;;;5010946;28;20049;-74
2022/09/02 03:33:48;;;;;;;9.15;6.18;;;15.00;99.90;;;;;;5018987;28;20107;-71
2022/09/02 03:36:23;;;;;;;10.40;6.85;;;14.90;99.90;;;;;;5018267;28;20053;-70
2022/09/02 03:38:53;;;;;;;6.85;6.03;;;14.90;99.90;;;;;;5013423;28;20225;-70
2022/09/02 03:41:20;;;;;;;10.70;6.15;;;15.00;99.90;;;;;;5015298;28;20068;-71
2022/09/02 03:43:48;;;;;;;7.18;5.93;;;15.00;99.90;;;;;;5014480;28;20064;-71
2022/09/02 03:46:16;;;;;;;8.85;7.47;;;14.90;99.90;;;;;;5016773;28;20042;-71
2022/09/02 03:48:44;;;;;;;9.43;6.85;;;14.90;99.90;;;;;;5014917;28;20074;-71
2022/09/02 03:51:13;;;;;;;9.25;6.90;;;14.90;99.90;;;;;;5015394;28;20100;-71
2022/09/02 03:53:41;;;;;;;8.45;6.50;;;14.90;99.90;;;;;;5011677;28;20038;-71
2022/09/02 03:56:13;;;;;;;10.88;7.32;;;14.90;99.90;;;;;;5013540;28;20116;-71
2022/09/02 03:58:40;;;;;;;7.18;6.43;;;14.90;99.90;;;;;;5007196;28;20057;-71
2022/09/02 04:01:07;;;;;;;9.30;6.20;;;15.00;99.90;;;;;;5015320;28;20125;-71
2022/09/02 04:03:35;;;;;;;11.95;7.47;;;15.00;99.90;;;;;;5016637;28;20054;-71
2022/09/02 04:06:02;;;;;;;8.88;7.00;;;15.00;99.90;;;;;;5015161;28;20042;-71
2022/09/02 04:08:29;;;;;;;9.07;6.88;;;15.00;99.90;;;;;;5016662;28;20049;-71
2022/09/02 04:11:05;;;;;;;8.82;6.38;;;15.00;99.90;;;;;;5020886;28;20048;-71
2022/09/02 04:13:35;;;;;;;11.25;7.10;;;15.00;99.90;;;;;;5016408;28;20042;-71
2022/09/02 04:16:06;;;;;;;8.52;6.57;;;15.00;99.90;;;;;;5013876;28;20046;-71
2022/09/02 04:18:34;;;;;;;9.15;6.95;;;15.10;99.90;;;;;;5007395;28;20042;-71
2022/09/02 04:21:02;;;;;;;11.98;6.95;;;15.10;99.90;;;;;;5015004;28;20124;-71
2022/09/02 04:23:30;;;;;;;7.38;6.20;;;15.10;99.90;;;;;;5015611;28;20041;-70
2022/09/02 04:25:58;;;;;;;7.60;5.72;;;15.10;99.90;;;;;;5014714;28;20066;-71
2022/09/02 04:28:26;;;;;;;11.18;7.03;;;15.10;99.90;;;;;;5010114;28;20076;-71
2022/09/02 04:30:55;;;;;;;8.90;6.03;;;15.10;99.90;;;;;;5011715;28;20049;-71
2022/09/02 04:33:22;;;;;;;9.90;6.65;;;15.10;99.90;;;;;;5014174;28;20049;-71
2022/09/02 04:35:50;;;;;;;10.55;6.78;;;15.10;99.90;;;;;;5014701;28;20061;-71
2022/09/02 04:38:18;;;;;;;9.77;6.85;;;15.10;99.90;;;;;;5014268;28;20399;-71
2022/09/02 04:40:47;;;;;;;12.23;8.07;;;15.10;99.90;;;;;;5013681;28;20168;-71
2022/09/02 04:43:17;;;;;;;13.30;7.57;;;15.00;99.90;;;;;;5014166;28;20046;-71
2022/09/02 04:45:47;;;;;;;9.05;7.50;;;15.10;99.90;;;;;;5014680;28;20600;-70
2022/09/02 04:48:18;;;;;;;10.68;7.53;;;15.10;99.90;;;;;;5015262;28;20042;-71
2022/09/02 04:50:48;;;;;;;11.45;8.70;;;15.10;99.90;;;;;;5014564;28;20060;-71
2022/09/02 04:53:16;;;;;;;15.27;9.80;;;15.10;99.90;;;;;;5014191;28;20089;-71
2022/09/02 04:55:44;;;;;;;13.05;8.45;;;15.10;99.90;;;;;;5014334;28;20066;-71
2022/09/02 04:58:15;;;;;;;10.38;7.22;;;15.10;99.90;;;;;;5014196;28;20046;-71
2022/09/02 05:00:42;;;;;;;11.65;7.85;;;15.10;99.90;;;;;;5013533;28;20046;-71
2022/09/02 05:03:12;;;;;;;12.93;7.95;;;15.10;99.90;;;;;;5013858;28;20378;-71
2022/09/02 05:05:43;;;;;;;9.98;6.78;;;15.10;99.90;;;;;;5013698;28;20042;-71
2022/09/02 05:08:13;;;;;;;10.40;6.93;;;15.10;99.90;;;;;;5013727;28;20528;-72
2022/09/02 05:10:41;;;;;;;12.50;7.53;;;15.10;99.90;;;;;;5013153;28;20046;-71
2022/09/02 05:13:09;;;;;;;8.93;7.18;;;15.10;99.90;;;;;;5014160;28;20057;-71
2022/09/02 05:15:39;;;;;;;10.88;8.02;;;15.10;99.90;;;;;;5020380;28;20046;-70
2022/09/02 05:18:06;;;;;;;13.15;8.07;;;15.10;99.90;;;;;;5027616;28;20049;-71
2022/09/02 05:20:34;;;;;;;14.80;8.10;;;15.10;99.90;;;;;;5025244;28;20375;-71
2022/09/02 05:23:03;;;;;;;10.13;7.50;;;15.10;99.90;;;;;;5026267;28;20104;-71
2022/09/02 05:25:30;;;;;;;15.05;8.80;;;15.10;99.90;;;;;;5019283;28;20073;-71
2022/09/02 05:27:58;;;;;;;19.35;11.43;;;15.20;99.90;;;;;;5012553;28;20045;-72
2022/09/02 05:30:25;;;;;;;12.45;9.15;;;15.20;99.90;;;;;;5003911;28;20050;-71
2022/09/02 05:32:52;;;;;;;15.85;10.88;;;15.20;99.90;;;;;;5012550;28;20045;-71
2022/09/02 05:35:21;;;;;;;13.35;8.63;;;15.20;99.90;;;;;;5012257;28;20073;-71
2022/09/02 05:37:51;;;;;;;15.82;10.88;;;15.20;99.90;;;;;;5011348;28;20045;-71
2022/09/02 05:40:20;;;;;;;11.63;9.40;;;15.20;99.90;;;;;;5010757;28;20482;-72
2022/09/02 05:42:47;;;;;;;15.05;9.80;;;15.20;99.90;;;;;;5019055;28;20492;-71
2022/09/02 05:45:15;;;;;;;13.20;8.93;;;15.20;99.90;;;;;;5033023;28;20033;-70
2022/09/02 05:47:42;;;;;;;14.70;9.63;;;15.20;99.90;;;;;;5020688;28;20516;-71
2022/09/02 05:50:10;;;;;;;17.92;12.23;;;15.20;99.90;;;;;;5033808;28;20500;-71
2022/09/02 05:52:37;;;;;;;12.52;8.80;;;15.20;99.90;;;;;;5033601;28;20073;-72
2022/09/02 05:55:05;;;;;;;13.57;7.68;;;15.20;99.90;;;;;;5013325;28;22012;-71
2022/09/02 05:57:39;;;;;;;11.85;8.20;;;15.20;99.90;;;;;;5017020;28;20072;-71
2022/09/02 06:00:10;;;;;;;12.77;8.98;;;15.20;99.90;;;;;;5016276;28;20045;-70
2022/09/02 06:02:49;;;;;;;12.82;8.38;;;15.20;99.90;;;;;;5016140;28;20049;-72
2022/09/02 06:05:29;;;;;;;11.93;10.65;;;15.20;99.90;;;;;;5016937;28;20523;-71
2022/09/02 06:08:06;;;;;;;12.75;9.05;;;15.20;99.90;;;;;;5015838;28;20049;-71
2022/09/02 06:10:33;;;;;;;12.65;9.13;;;15.20;99.90;;;;;;5016180;28;20060;-71
2022/09/02 06:13:03;;;;;;;11.73;9.23;;;15.20;99.90;;;;;;5015093;28;20063;-71
2022/09/02 06:15:33;;;;;;;13.02;9.13;;;15.20;99.90;;;;;;5009941;28;20049;-71
2022/09/02 06:18:02;;;;;;;19.27;14.02;;;15.30;99.90;;;;;;5015650;28;20111;-71
2022/09/02 06:20:31;;;;;;;14.70;10.70;;;15.30;99.90;;;;;;5005569;28;20041;-71
2022/09/02 06:22:59;;;;;;;14.43;10.38;;;15.40;99.90;;;;;;5012396;28;20053;-70
2022/09/02 06:25:27;;;;;;;14.25;9.70;;;15.40;99.90;;;;;;5018226;28;20128;-71
2022/09/02 06:27:54;;;;;;;14.10;10.30;;;15.50;99.90;;;;;;5016036;28;20412;-71
2022/09/02 06:30:23;;;;;;;16.27;12.50;;;15.50;99.90;;;;;;5017842;28;20057;-72
2022/09/02 06:32:50;;;;;;;17.20;9.30;;;15.60;99.90;;;;;;5015052;28;20045;-72
2022/09/02 06:35:18;;;;;;;17.50;9.38;;;15.70;99.90;;;;;;5012169;28;20052;-71
2022/09/02 06:37:46;;;;;;;12.82;8.80;;;15.70;99.90;;;;;;5012118;28;20376;-71
2022/09/02 06:40:14;;;;;;;14.73;9.02;;;15.80;99.90;;;;;;5011778;28;20045;-71
2022/09/02 06:42:42;;;;;;;15.00;8.18;;;15.80;99.90;;;;;;5014139;28;20049;-71
2022/09/02 06:45:31;;;;;;;14.27;10.52;;;15.80;99.90;;;;;;5030961;28;20521;-71
2022/09/02 06:48:01;;;;;;;14.48;10.70;;;15.90;99.90;;;;;;5013906;28;20049;-72
2022/09/02 06:50:32;;;;;;;18.73;10.98;;;15.90;99.90;;;;;;5014334;28;20045;-72
2022/09/02 06:53:00;;;;;;;28.42;21.33;;;15.90;99.90;;;;;;5014683;28;20081;-71
2022/09/02 06:55:27;;;;;;;17.33;13.07;;;16.00;99.90;;;;;;5013869;28;20096;-70
2022/09/02 06:57:55;;;;;;;40.85;15.13;;;15.90;99.90;;;;;;5015135;28;20179;-71
2022/09/02 07:00:22;;;;;;;14.15;10.38;;;15.90;99.90;;;;;;5014193;28;20037;-71
2022/09/02 07:05:08;;;;;;;12.07;9.98;;;15.80;99.90;;;;;;5013491;28;20519;-71
2022/09/02 07:05:38;;;;;;;14.13;10.07;;;15.90;99.90;;;;;;5004008;28;20053;-71
2022/09/02 07:08:06;;;;;;;34.75;13.75;;;15.90;99.90;;;;;;5010733;28;20512;-70
2022/09/02 07:10:37;;;;;;;22.77;14.00;;;15.90;99.90;;;;;;5031112;28;20076;-70
2022/09/02 07:13:04;;;;;;;23.13;20.65;;;15.90;99.90;;;;;;5011129;28;20059;-70
2022/09/02 07:15:32;;;;;;;27.55;24.65;;;16.00;99.90;;;;;;5014185;28;20049;-71
2022/09/02 07:18:02;;;;;;;31.05;26.30;;;16.00;99.90;;;;;;5006489;28;20084;-71
2022/09/02 07:20:35;;;;;;;34.92;29.40;;;16.00;99.90;;;;;;4995398;28;20100;-71
2022/09/02 07:23:04;;;;;;;32.53;28.95;;;16.10;99.90;;;;;;5013850;28;20067;-71
2022/09/02 07:25:33;;;;;;;27.05;23.75;;;16.10;99.90;;;;;;5014073;28;20100;-71
2022/09/02 07:28:01;;;;;;;21.42;19.08;;;16.10;99.90;;;;;;5011298;28;20076;-71
2022/09/02 07:30:32;;;;;;;20.92;16.77;;;16.20;99.90;;;;;;5013241;28;20461;-71
2022/09/02 07:33:08;;;;;;;21.10;13.43;;;16.30;99.90;;;;;;5013973;28;20053;-70
2022/09/02 07:35:37;;;;;;;25.65;13.73;;;16.40;99.90;;;;;;5005231;28;20107;-70
2022/09/02 07:38:07;;;;;;;14.30;10.63;;;16.40;99.90;;;;;;5014332;28;20041;-70
2022/09/02 07:40:35;;;;;;;16.70;10.38;;;16.40;99.90;;;;;;5032463;28;20496;-71
2022/09/02 07:43:05;;;;;;;23.33;12.57;;;16.50;99.90;;;;;;5014779;28;20136;-70
2022/09/02 07:45:36;;;;;;;29.38;16.13;;;16.50;99.90;;;;;;5015069;28;20053;-72
2022/09/02 07:48:06;;;;;;;27.50;14.50;;;16.70;99.90;;;;;;5032521;28;20065;-71
2022/09/02 07:50:36;;;;;;;21.50;9.82;;;16.70;99.90;;;;;;5014693;28;20053;-71
2022/09/02 07:53:05;;;;;;;11.48;8.73;;;16.70;99.90;;;;;;5013903;28;20104;-71
2022/09/02 07:55:36;;;;;;;9.38;8.05;;;16.60;99.90;;;;;;5013568;28;20092;-71
2022/09/02 07:58:05;;;;;;;15.88;8.95;;;16.60;99.90;;;;;;5014719;28;20117;-71
2022/09/02 08:00:33;;;;;;;13.55;8.23;;;16.70;99.90;;;;;;5016498;28;20088;-71
2022/09/02 08:03:06;;;;;;;15.95;9.77;;;16.80;99.90;;;;;;5017508;28;20057;-71
2022/09/02 08:05:40;;;;;;;10.70;7.82;;;16.90;99.90;;;;;;5017744;28;20057;-70
2022/09/02 08:08:08;;;;;;;13.48;8.88;;;17.00;99.90;;;;;;5017932;28;20048;-71
2022/09/02 08:10:37;;;;;;;10.52;6.57;;;16.90;99.90;;;;;;5035747;28;20042;-72
2022/09/02 08:13:05;;;;;;;8.10;3.80;;;16.80;99.90;;;;;;5017757;28;20136;-71
2022/09/02 08:15:34;;;;;;;7.78;3.92;;;16.80;99.90;;;;;;5035027;28;20045;-71
2022/09/02 08:18:02;;;;;;;5.13;3.78;;;16.80;99.90;;;;;;5035166;28;20045;-72
2022/09/02 08:20:30;;;;;;;7.40;4.82;;;16.80;99.90;;;;;;5035434;28;20041;-71
2022/09/02 08:22:59;;;;;;;7.28;4.72;;;16.80;99.90;;;;;;5035651;28;20052;-72
2022/09/02 08:25:26;;;;;;;8.57;5.47;;;16.80;99.90;;;;;;5034811;28;20536;-71
2022/09/02 08:27:54;;;;;;;7.10;4.68;;;16.90;99.90;;;;;;5034835;28;20116;-71
2022/09/02 08:30:22;;;;;;;5.28;4.15;;;16.90;99.90;;;;;;5035742;28;20135;-72
2022/09/02 08:32:49;;;;;;;7.63;3.28;;;16.90;99.90;;;;;;5035664;28;20049;-72
2022/09/02 08:35:16;;;;;;;5.88;3.22;;;16.80;99.90;;;;;;5035496;28;20515;-72
2022/09/02 08:37:43;;;;;;;10.15;4.43;;;16.80;99.90;;;;;;5035286;28;20034;-72
2022/09/02 08:40:16;;;;;;;6.38;4.00;;;16.90;99.90;;;;;;5035123;28;20041;-71
2022/09/02 08:42:46;;;;;;;6.90;4.47;;;16.90;99.90;;;;;;5036123;28;20285;-72
2022/09/02 08:45:20;;;;;;;5.57;3.95;;;16.90;99.90;;;;;;5035917;28;20103;-72
2022/09/02 08:47:53;;;;;;;10.63;4.82;;;16.90;99.90;;;;;;5022105;28;20095;-71
2022/09/02 08:50:22;;;;;;;7.30;4.70;;;16.80;99.90;;;;;;5032130;28;20041;-73
2022/09/02 08:52:59;;;;;;;10.40;5.10;;;16.90;99.90;;;;;;5034793;28;20156;-73
2022/09/02 08:55:34;;;;;;;7.30;4.55;;;16.90;99.90;;;;;;5035324;28;20045;-72
2022/09/02 08:58:02;;;;;;;9.05;5.35;;;16.90;99.90;;;;;;5033695;28;20041;-72
2022/09/02 09:00:35;;;;;;;16.10;11.93;;;16.90;99.90;;;;;;5034687;28;20045;-72
2022/09/02 09:03:15;;;;;;;15.57;11.20;;;16.90;99.90;;;;;;5034227;28;20096;-72
2022/09/02 09:05:47;;;;;;;14.85;5.78;;;16.90;99.90;;;;;;5024614;28;20042;-73
2022/09/02 09:08:24;;;;;;;12.80;8.45;;;17.00;99.90;;;;;;5034908;28;20049;-72
2022/09/02 09:10:59;;;;;;;8.88;6.28;;;17.00;99.90;;;;;;5033861;28;20205;-73
2022/09/02 09:13:59;;;;;;;8.48;5.47;;;17.00;99.90;;;;;;5034195;28;20134;-73
2022/09/02 09:16:38;;;;;;;17.70;8.35;;;17.00;99.90;;;;;;5032511;28;20037;-71
2022/09/02 09:19:12;;;;;;;11.38;7.10;;;16.90;99.90;;;;;;5034705;28;20041;-71
2022/09/02 09:21:40;;;;;;;10.75;7.22;;;16.80;99.90;;;;;;5027436;28;20072;-71
2022/09/02 09:24:17;;;;;;;15.88;9.82;;;16.90;99.90;;;;;;5014832;28;20083;-70
2022/09/02 09:26:47;;;;;;;12.38;8.80;;;17.00;99.90;;;;;;5020301;28;20041;-71
2022/09/02 09:29:14;;;;;;;15.77;10.68;;;17.00;99.90;;;;;;5033614;28;20055;-71
2022/09/02 09:31:42;;;;;;;12.27;9.05;;;17.00;99.90;;;;;;5033737;28;20428;-71
2022/09/02 09:34:13;;;;;;;16.05;12.27;;;17.00;99.90;;;;;;5033115;28;20507;-71
2022/09/02 09:36:48;;;;;;;18.35;11.38;;;17.00;99.90;;;;;;5033734;28;20549;-71
2022/09/02 09:39:18;;;;;;;12.20;7.32;;;17.20;99.90;;;;;;5034121;28;20428;-71
2022/09/02 09:41:48;;;;;;;8.57;5.60;;;17.30;99.90;;;;;;5034683;28;20054;-68
2022/09/02 09:44:39;;;;;;;8.77;5.63;;;17.40;99.90;;;;;;5033551;28;20049;-69
2022/09/02 09:47:08;;;;;;;10.93;7.10;;;17.50;99.90;;;;;;5033848;28;20132;-68
2022/09/02 09:49:36;;;;;;;12.07;9.48;;;17.60;99.90;;;;;;5033768;28;20044;-67
2022/09/02 09:52:04;;;;;;;10.80;4.95;;;17.70;99.90;;;;;;5034067;28;20117;-67
2022/09/02 09:54:32;;;;;;;10.73;6.40;;;17.70;99.90;;;;;;5033080;28;20048;-68
2022/09/02 09:57:19;;;;;;;13.20;8.73;;;17.80;99.90;;;;;;5031399;28;20420;-68
2022/09/02 09:59:49;;;;;;;9.90;6.50;;;17.70;99.90;;;;;;5030104;28;20461;-68
2022/09/02 10:02:21;;;;;;;7.43;5.25;;;17.70;99.90;;;;;;5030754;28;20041;-68
2022/09/02 10:04:48;;;;;;;6.78;5.20;;;17.70;99.90;;;;;;5033612;28;20048;-68
2022/09/02 10:07:35;;;;;;;11.07;5.18;;;17.60;99.90;;;;;;5033608;28;20111;-67
2022/09/02 10:10:09;;;;;;;;;;;17.60;99.90;;;;;;5034657;28;20083;-69
2022/09/02 10:12:38;;;;;;;7.72;5.10;;;17.40;99.90;;;;;;5032457;28;19921;-68
2022/09/02 10:15:07;;;;;;;5.85;4.70;;;17.40;99.90;;;;;;5029650;28;20045;-68
2022/09/02 10:17:41;;;;;;;9.73;5.20;;;17.50;99.90;;;;;;5032420;28;20045;-68
2022/09/02 10:20:15;;;;;;;8.20;5.28;;;17.50;99.90;;;;;;5032600;28;20096;-69
2022/09/02 10:23:16;;;;;;;16.15;11.55;;;17.50;99.90;;;;;;5032786;28;20488;-67
2022/09/02 10:25:58;;;;;;;7.32;4.82;;;17.50;99.90;;;;;;4976459;28;20104;-68
2022/09/02 10:28:43;;;;;;;9.93;5.95;;;17.40;99.90;;;;;;5029389;28;20079;-69
2022/09/02 10:31:19;;;;;;;9.23;6.13;;;17.60;99.90;;;;;;5033163;28;20072;-68
2022/09/02 10:34:02;;;;;;;9.45;5.40;;;17.70;99.90;;;;;;5028238;28;20053;-68
2022/09/02 10:36:35;;;;;;;7.97;4.35;;;17.70;99.90;;;;;;5029359;28;20389;-70
2022/09/02 10:39:13;;;;;;;9.52;5.00;;;17.70;99.90;;;;;;5009134;28;20041;-67
2022/09/02 10:41:45;;;;;;;11.18;6.00;;;17.60;99.90;;;;;;5025953;28;20088;-68
2022/09/02 10:44:26;;;;;;;7.93;5.35;;;17.70;99.90;;;;;;5031682;28;20474;-68
2022/09/02 10:47:01;;;;;;;12.05;7.70;;;18.00;99.90;;;;;;5012393;28;20053;-69
2022/09/02 10:49:57;;;;;;;7.35;5.75;;;18.40;99.90;;;;;;5020969;28;20456;-69
2022/09/02 10:52:37;;;;;;;9.60;5.82;;;18.70;99.90;;;;;;5031296;28;20096;-70
2022/09/02 10:55:13;;;;;;;6.53;4.00;;;19.00;99.90;;;;;;5031633;28;20064;-69
2022/09/02 10:57:48;;;;;;;6.10;4.47;;;19.20;99.90;;;;;;5030997;28;20553;-71
2022/09/02 11:00:19;;;;;;;7.67;4.93;;;19.20;99.90;;;;;;5014427;28;20069;-68
2022/09/02 11:02:51;;;;;;;6.13;3.58;;;19.30;99.90;;;;;;5032581;28;20045;-68
2022/09/02 11:05:23;;;;;;;7.75;3.80;;;19.40;99.90;;;;;;5015040;28;20096;-68
2022/09/02 11:07:55;;;;;;;8.40;5.20;;;19.70;99.90;;;;;;5032586;28;20037;-68
2022/09/02 11:10:26;;;;;;;6.15;4.10;;;19.80;99.90;;;;;;5014732;28;20050;-68
2022/09/02 11:13:00;;;;;;;8.02;5.63;;;19.90;99.90;;;;;;5032688;28;20120;-68
2022/09/02 11:15:43;;;;;;;8.45;5.05;;;20.10;99.90;;;;;;5034393;28;20049;-67
2022/09/02 11:18:17;;;;;;;4.85;3.58;;;20.40;1.00;;;;;;5033508;28;20471;-69
2022/09/02 11:20:54;;;;;;;4.97;3.70;;;20.40;99.90;;;;;;5031964;28;20381;-69
2022/09/02 11:23:29;;;;;;;6.90;4.15;;;20.20;99.90;;;;;;5032424;28;20228;-68
2022/09/02 11:26:02;;;;;;;7.43;3.92;;;20.40;99.90;;;;;;5032915;28;20050;-68
2022/09/02 11:28:36;;;;;;;8.05;4.03;;;20.10;1.00;;;;;;5031867;28;20555;-68
2022/09/02 11:31:12;;;;;;;4.82;3.38;;;20.30;1.00;;;;;;5014509;28;20053;-71
2022/09/02 11:33:50;;;;;;;4.53;3.22;;;20.30;1.00;;;;;;5012136;28;20045;-68
2022/09/02 11:36:18;;;;;;;6.05;3.10;;;20.10;1.00;;;;;;5036160;28;20049;-68
2022/09/02 11:38:53;;;;;;;9.70;7.00;;;20.00;99.90;;;;;;5035535;28;20049;-69
2022/09/02 11:41:28;;;;;;;8.30;3.90;;;20.10;96.40;;;;;;5028997;28;20493;-69
2022/09/02 11:44:00;;;;;;;5.13;3.10;;;20.00;99.90;;;;;;5032153;28;20049;-68
2022/09/02 11:46:47;;;;;;;5.75;3.10;;;19.70;99.90;;;;;;5033377;28;20129;-67
2022/09/02 11:49:40;;;;;;;5.47;3.20;;;19.30;1.00;;;;;;5035105;28;20107;-69
2022/09/02 11:52:21;;;;;;;10.18;6.40;;;19.10;99.90;;;;;;5034868;28;20088;-68
2022/09/02 11:54:54;;;;;;;9.63;3.95;;;19.00;1.00;;;;;;5035011;28;20049;-68
2022/09/02 11:57:23;;;;;;;8.57;5.10;;;19.10;1.00;;;;;;5034602;28;20091;-67
2022/09/02 12:00:11;;;;;;;9.68;5.90;;;19.30;99.90;;;;;;5029505;28;20073;-67
2022/09/02 12:02:47;;;;;;;6.57;4.18;;;19.50;1.00;;;;;;5034769;28;20049;-68
2022/09/02 12:05:44;;;;;;;10.40;5.97;;;19.60;1.00;;;;;;5036130;28;20049;-68
2022/09/02 12:08:34;;;;;;;9.00;5.93;;;19.40;99.90;;;;;;5035862;28;20049;-68
2022/09/02 12:11:03;;;;;;;7.90;4.68;;;19.40;99.90;;;;;;5035593;28;20053;-68
2022/09/02 12:13:37;;;;;;;8.02;3.55;;;19.50;1.00;;;;;;5032454;28;20045;-68
2022/09/02 12:16:37;;;;;;;8.55;4.22;;;19.10;99.90;;;;;;5035697;28;20045;-69
2022/09/02 12:19:29;;;;;;;10.00;5.50;;;19.00;1.00;;;;;;5035446;28;20049;-69
2022/09/02 12:22:37;;;;;;;6.82;3.45;;;19.20;99.90;;;;;;5011628;28;20065;-68
2022/09/02 12:25:20;;;;;;;9.43;4.68;;;19.20;99.90;;;;;;5031822;28;20099;-71
2022/09/02 12:27:49;;;;;;;6.10;3.95;;;19.20;1.00;;;;;;5018344;28;20045;-67
2022/09/02 12:30:51;;;;;;;7.38;4.60;;;19.30;1.00;;;;;;5033842;28;20492;-69
2022/09/02 12:33:30;;;;;;;5.68;4.20;;;19.30;1.00;;;;;;5022565;28;20073;-68
2022/09/02 12:35:59;;;;;;;9.00;5.32;;;18.90;1.00;;;;;;5034522;28;20083;-69
2022/09/02 12:38:30;;;;;;;9.50;5.03;;;18.80;1.00;;;;;;5015879;28;20493;-69
2022/09/02 12:41:22;;;;;;;10.57;5.30;;;18.80;1.00;;;;;;5034964;28;20053;-68
2022/09/02 12:44:09;;;;;;;8.90;5.22;;;18.80;1.00;;;;;;5035427;28;20041;-67
2022/09/02 12:46:48;;;;;;;;;;;18.80;1.00;;;;;;5035569;28;20046;-67
2022/09/02 12:49:33;;;;;;;10.27;4.80;;;18.80;1.00;;;;;;5035233;28;19921;-68
2022/09/02 12:52:03;;;;;;;14.67;5.43;;;18.80;1.00;;;;;;5035235;28;20494;-68
2022/09/02 12:54:41;;;;;;;15.80;6.03;;;18.80;1.00;;;;;;5034847;28;20290;-69
2022/09/02 12:57:10;;;;;;;12.48;5.78;;;18.70;1.00;;;;;;5034149;28;20053;-66
2022/09/02 12:59:39;;;;;;;9.70;6.47;;;18.60;1.00;;;;;;5035152;28;20198;-68
2022/09/02 13:02:21;;;;;;;13.52;8.95;;;18.60;1.00;;;;;;5035240;28;20049;-68
2022/09/02 13:05:01;;;;;;;22.50;15.07;;;18.50;1.00;;;;;;5035337;28;20045;-68